Terminal Aerodrome Forecast
Issued by NWS

Home | Current Version | Previous Version | Text Only | Print | Product List | Glossary On
Versions: 1 2 3 4 5 6 7 8 9 10 11 12 13 14 15 16 17 18 19 20 21 22 23 24 25 26 27 28 29 30 31 32 33 34
000
FTUS43 KSGF 262300
TAFJLN
TAF
KJLN 262331Z 2700/2724 21010KT P6SM -RA SCT040 OVC250
     FM270230 20006KT P6SM VCTS SCT035CB OVC250
     FM270530 20006KT P6SM BKN010
     FM271300 19004KT P6SM SCT120=

USA.gov is the U.S. government's official web portal to all federal, state and local government web resources and services.